Accueil
METAR-TAF:

METAR-TAF

Aéroports :

Ephrata Municipal Airport

Ephrata, Washington, États-Unis

latitude: 47-18-27N, longitude: 119-30-57W, altitude: 389 m

Observation

Le bulletin a été fait il y a 43 minutes, à 08:53 UTC
Vent 7 kt de sud/sud-ouest
Température 14°C
Humidité 58%
Pression 1009 hPa
Visibilité: 16.1 km
Nuages fragmentés à une hauteur de 11000 ft

METAR: KEPH 220853Z AUTO 20007KT 10SM BKN110 14/06 A2981 RMK AO2 SLP089 T01440061 55001

Heure: 02:36 (09:36 UTC)


TAF: absent

Observations et prévisions météorologiques de plus de 4000 aéroports (messages METAR et TAF).

Les stations disponibles sont représentées par des disques jaunes et rouges sur la carte.

Passer la souris dessus pour voir le nom de la station.

Cliquer dessus pour voir les observations et prévisions météorologiques.

Pour changer de carte: cliquez sur les boutons verts avec une croix noire pour zoomer, sur le bouton vert avec un tiret pour effectuer un zoom arrière, ou sur les flèches vertes pour les cartes adjacentes.


METAR-TAF: